Time;durP1;ratioP1;P1;durP2;ratioP2;P2;SDS_P1;SDS_P2;PMS_P1;PMS_P2;Temp;Humidity;BMP_temperature;BMP_pressure;BME280_temperature;BME280_humidity;BME280_pressure;Samples;Min_cycle;Max_cycle;Signal;HPM_P1;HPM_P2
2022/08/28 00:00:19;;;;;;;53.25;25.20;;;;;;;16.10;100.00;97348.41;5047423;28;20099;-68
2022/08/28 00:02:46;;;;;;;51.08;25.75;;;;;;;15.96;100.00;97353.72;5047224;28;20436;-67
2022/08/28 00:05:16;;;;;;;50.13;25.85;;;;;;;15.86;100.00;97354.59;5047142;28;20047;-68
2022/08/28 00:07:42;;;;;;;51.75;25.90;;;;;;;15.97;100.00;97355.38;5047382;28;20459;-69
2022/08/28 00:10:15;;;;;;;45.83;24.75;;;;;;;15.89;100.00;97360.59;5046028;28;20041;-69
2022/08/28 00:12:43;;;;;;;46.08;24.95;;;;;;;15.88;100.00;97357.03;5046733;28;20041;-68
2022/08/28 00:15:14;;;;;;;44.97;23.73;;;;;;;15.93;100.00;97345.28;5053351;28;20495;-68
2022/08/28 00:17:41;;;;;;;48.63;24.05;;;;;;;15.96;100.00;97359.19;5052201;28;20094;-68
2022/08/28 00:20:10;;;;;;;42.28;22.42;;;;;;;15.91;100.00;97353.75;5046956;28;20057;-68
2022/08/28 00:22:38;;;;;;;43.17;21.98;;;;;;;15.90;100.00;97352.13;5045208;28;20280;-68
2022/08/28 00:25:06;;;;;;;38.33;22.13;;;;;;;15.89;100.00;97355.97;5046953;28;20055;-67
2022/08/28 00:27:51;;;;;;;42.50;23.27;;;;;;;15.94;100.00;97355.09;5046304;28;20570;-69
2022/08/28 00:30:25;;;;;;;40.35;22.63;;;;;;;15.91;100.00;97355.66;5045967;28;20052;-69
2022/08/28 00:32:53;;;;;;;39.83;20.70;;;;;;;15.91;100.00;97359.19;5046764;28;20115;-69
2022/08/28 00:35:22;;;;;;;37.72;20.80;;;;;;;15.88;100.00;97354.31;5046360;28;20040;-68
2022/08/28 00:37:49;;;;;;;38.72;21.85;;;;;;;15.84;100.00;97364.19;5045731;28;20106;-68
2022/08/28 00:40:19;;;;;;;36.67;20.73;;;;;;;15.91;100.00;97356.47;5047209;28;20055;-67
2022/08/28 00:42:59;;;;;;;;;;;;;;;16.00;100.00;97356.72;5046572;28;20488;-68
2022/08/28 00:45:26;;;;;;;35.35;20.80;;;;;;;16.03;100.00;97360.78;5051774;28;19947;-69
2022/08/28 00:47:53;;;;;;;37.80;21.17;;;;;;;15.97;100.00;97363.56;5046308;28;20051;-68
2022/08/28 00:50:23;;;;;;;35.88;22.33;;;;;;;16.00;100.00;97356.72;5046100;28;20041;-67
2022/08/28 00:52:54;;;;;;;39.28;21.73;;;;;;;16.03;100.00;97358.84;5046180;28;20040;-67
2022/08/28 00:55:23;;;;;;;38.45;21.83;;;;;;;16.08;100.00;97358.81;5046231;28;20459;-68
2022/08/28 00:57:53;;;;;;;37.67;22.48;;;;;;;16.09;100.00;97352.25;5045761;28;20056;-69
2022/08/28 01:00:31;;;;;;;39.70;22.30;;;;;;;16.28;100.00;97356.16;5046265;28;20045;-70
2022/08/28 01:02:58;;;;;;;41.35;21.77;;;;;;;16.19;100.00;97353.25;5045575;28;20045;-69
2022/08/28 01:05:27;;;;;;;35.20;20.90;;;;;;;16.20;100.00;97352.13;5046349;28;20140;-68
2022/08/28 01:07:57;;;;;;;37.22;20.92;;;;;;;16.20;100.00;97344.75;5045725;28;20215;-68
2022/08/28 01:10:27;;;;;;;38.80;22.88;;;;;;;16.23;100.00;97351.56;5038561;28;20095;-68
2022/08/28 01:12:55;;;;;;;38.92;21.38;;;;;;;16.10;100.00;97355.78;5033045;28;20048;-67
2022/08/28 01:15:27;;;;;;;37.97;21.58;;;;;;;16.12;100.00;97356.31;5037542;28;20254;-68
2022/08/28 01:17:58;;;;;;;41.30;22.60;;;;;;;16.10;100.00;97358.50;5043541;28;20041;-68
2022/08/28 01:20:29;;;;;;;41.80;21.75;;;;;;;16.12;100.00;97357.13;5045791;28;20107;-68
2022/08/28 01:23:18;;;;;;;35.95;21.58;;;;;;;16.14;100.00;97356.81;5045248;28;20488;-68
2022/08/28 01:25:44;;;;;;;40.22;21.92;;;;;;;16.17;100.00;97358.97;5045580;28;20052;-69
2022/08/28 01:28:13;;;;;;;41.45;23.13;;;;;;;16.10;100.00;97353.88;5045420;28;20102;-70
2022/08/28 01:30:41;;;;;;;39.33;20.80;;;;;;;16.09;100.00;97354.16;5045611;28;20045;-69
2022/08/28 01:33:08;;;;;;;40.83;21.48;;;;;;;16.03;100.00;97344.38;5042516;28;20132;-68
2022/08/28 01:35:41;;;;;;;41.42;21.60;;;;;;;15.98;100.00;97345.25;5045737;28;20100;-68
2022/08/28 01:38:08;;;;;;;32.67;20.85;;;;;;;15.93;100.00;97342.53;5045597;28;20063;-69
2022/08/28 01:40:38;;;;;;;34.97;21.27;;;;;;;15.93;100.00;97350.72;5045506;28;20401;-68
2022/08/28 01:43:35;;;;;;;39.97;20.33;;;;;;;15.92;100.00;97344.44;5045264;28;20534;-68
2022/08/28 01:46:04;;;;;;;39.85;20.10;;;;;;;15.89;100.00;97339.59;5045639;28;20060;-70
2022/08/28 01:48:36;;;;;;;45.83;22.90;;;;;;;15.81;100.00;97349.19;5045447;28;20457;-69
2022/08/28 01:51:04;;;;;;;39.92;20.35;;;;;;;15.78;100.00;97354.41;5048431;28;20052;-68
2022/08/28 01:53:31;;;;;;;38.35;21.85;;;;;;;15.77;100.00;97352.78;5049652;28;20475;-68
2022/08/28 01:56:01;;;;;;;45.92;22.05;;;;;;;15.82;100.00;97352.75;5049247;28;20045;-68
2022/08/28 01:58:30;;;;;;;39.80;20.70;;;;;;;15.70;100.00;97353.13;5045476;28;20053;-67
2022/08/28 02:01:01;;;;;;;40.25;20.42;;;;;;;15.60;100.00;97349.34;5049479;28;20048;-70
2022/08/28 02:03:28;;;;;;;44.58;24.20;;;;;;;15.62;100.00;97351.81;5049094;28;20122;-68
2022/08/28 02:05:54;;;;;;;43.85;22.17;;;;;;;15.57;100.00;97360.03;5049091;28;20075;-68
2022/08/28 02:08:21;;;;;;;45.63;23.17;;;;;;;15.63;100.00;97358.09;5049198;28;20051;-68
2022/08/28 02:10:48;;;;;;;51.33;25.05;;;;;;;15.65;100.00;97364.88;5049101;28;20094;-69
2022/08/28 02:13:14;;;;;;;49.70;23.25;;;;;;;15.75;100.00;97369.44;5048725;28;20056;-69
2022/08/28 02:15:43;;;;;;;47.63;24.48;;;;;;;15.56;100.00;97366.59;5052442;28;20045;-68
2022/08/28 02:18:09;;;;;;;50.13;24.83;;;;;;;15.66;100.00;97361.06;5049488;28;20053;-68
2022/08/28 02:20:36;;;;;;;49.60;23.05;;;;;;;15.58;100.00;97364.38;5048957;28;20133;-69
2022/08/28 02:23:03;;;;;;;49.17;24.30;;;;;;;15.60;100.00;97356.75;5039744;28;20111;-67
2022/08/28 02:25:30;;;;;;;43.65;22.58;;;;;;;15.56;100.00;97355.69;5042113;28;20037;-69
2022/08/28 02:27:56;;;;;;;44.83;22.35;;;;;;;15.51;100.00;97356.53;5047816;28;20060;-69
2022/08/28 02:30:23;;;;;;;42.00;22.65;;;;;;;15.54;100.00;97361.44;5032361;28;20050;-71
2022/08/28 02:32:50;;;;;;;49.42;23.08;;;;;;;15.52;100.00;97360.09;5048977;28;20033;-67
2022/08/28 02:35:18;;;;;;;53.33;23.08;;;;;;;15.57;100.00;97360.88;5048216;28;20099;-70
2022/08/28 02:37:45;;;;;;;50.35;22.55;;;;;;;15.59;100.00;97363.31;5048653;28;20037;-68
2022/08/28 02:40:15;;;;;;;49.63;23.55;;;;;;;15.66;100.00;97363.78;5046770;28;20489;-69
2022/08/28 02:42:42;;;;;;;52.40;25.73;;;;;;;15.74;100.00;97360.44;5047463;28;20041;-68
2022/08/28 02:45:10;;;;;;;46.20;22.27;;;;;;;15.66;100.00;97361.06;5053876;28;20048;-68
2022/08/28 02:47:41;;;;;;;55.45;25.08;;;;;;;15.79;100.00;97364.22;5047729;28;20048;-68
2022/08/28 02:50:11;;;;;;;49.08;23.50;;;;;;;15.73;100.00;97356.09;5048960;28;20037;-68
2022/08/28 02:52:39;;;;;;;48.20;22.77;;;;;;;15.74;100.00;97359.66;5047371;28;20044;-68
2022/08/28 02:55:07;;;;;;;55.88;25.27;;;;;;;15.83;100.00;97351.63;5047481;28;20055;-69
2022/08/28 02:57:34;;;;;;;48.88;23.73;;;;;;;15.92;100.00;97360.03;5047793;28;20045;-70
2022/08/28 03:00:04;;;;;;;59.95;25.88;;;;;;;16.03;100.00;97353.38;5048563;28;20044;-69
2022/08/28 03:02:30;;;;;;;56.13;25.52;;;;;;;16.07;100.00;97351.69;5047298;28;20605;-68
2022/08/28 03:04:58;;;;;;;56.75;25.88;;;;;;;16.10;100.00;97353.88;5048427;28;20047;-68
2022/08/28 03:07:28;;;;;;;44.45;23.48;;;;;;;16.15;100.00;97354.91;5047458;28;20052;-68
2022/08/28 03:09:55;;;;;;;45.05;21.65;;;;;;;16.03;100.00;97347.13;5048449;28;20052;-68
2022/08/28 03:12:23;;;;;;;51.13;24.35;;;;;;;16.13;100.00;97360.66;5047553;28;20045;-68
2022/08/28 03:14:53;;;;;;;55.60;27.63;;;;;;;16.17;100.00;97352.69;5051779;28;20098;-67
2022/08/28 03:17:21;;;;;;;59.15;27.88;;;;;;;16.19;100.00;97353.25;5060336;28;20108;-68
2022/08/28 03:19:49;;;;;;;53.80;25.85;;;;;;;16.23;100.00;97348.81;5047336;28;20120;-68
2022/08/28 03:25:05;;;;;;;57.05;26.27;;;;;;;16.32;100.00;97349.81;5047728;28;20412;-67
2022/08/28 03:27:31;;;;;;;50.35;24.88;;;;;;;16.36;100.00;97350.03;5047821;28;20040;-68
2022/08/28 03:29:58;;;;;;;54.40;26.15;;;;;;;16.38;100.00;97343.19;5048226;28;20086;-69
2022/08/28 03:32:25;;;;;;;54.75;26.05;;;;;;;16.37;100.00;97346.22;5047422;28;20044;-69
2022/08/28 03:34:54;;;;;;;50.03;25.23;;;;;;;16.35;100.00;97351.97;5047465;28;20045;-68
2022/08/28 03:37:21;;;;;;;47.15;25.48;;;;;;;16.40;100.00;97347.56;5047279;28;20091;-69
2022/08/28 03:39:48;;;;;;;49.53;26.10;;;;;;;16.37;100.00;97338.03;5047657;28;20044;-68
2022/08/28 03:42:14;;;;;;;43.67;25.45;;;;;;;16.43;100.00;97350.50;5047428;28;20650;-68
2022/08/28 03:44:41;;;;;;;43.85;23.55;;;;;;;16.38;100.00;97354.13;5049830;28;20040;-69
2022/08/28 03:47:07;;;;;;;44.35;25.15;;;;;;;16.40;100.00;97353.03;5058788;28;20048;-68
2022/08/28 03:49:34;;;;;;;42.28;24.23;;;;;;;16.34;100.00;97357.72;5047805;28;20041;-67
2022/08/28 03:52:01;;;;;;;42.08;24.30;;;;;;;16.30;100.00;97364.88;5047315;28;20048;-68
2022/08/28 03:54:30;;;;;;;40.65;23.45;;;;;;;16.35;100.00;97357.44;5048064;28;20048;-69
2022/08/28 03:56:57;;;;;;;41.50;24.52;;;;;;;16.38;100.00;97359.59;5047062;28;20045;-68
2022/08/28 03:59:23;;;;;;;44.38;26.13;;;;;;;16.37;100.00;97355.22;5047637;28;20044;-70
2022/08/28 04:01:57;;;;;;;43.10;24.58;;;;;;;16.38;100.00;97351.41;5044306;28;20124;-69
2022/08/28 04:04:24;;;;;;;40.10;22.65;;;;;;;16.43;100.00;97353.25;5046679;28;20455;-67
2022/08/28 04:06:50;;;;;;;42.13;24.08;;;;;;;16.45;100.00;97353.78;5047308;28;20037;-68
2022/08/28 04:09:17;;;;;;;41.13;24.65;;;;;;;16.46;100.00;97358.13;5046917;28;20308;-68
2022/08/28 04:11:43;;;;;;;37.28;23.15;;;;;;;16.47;100.00;97361.69;5046212;28;20693;-69
2022/08/28 04:14:10;;;;;;;35.33;23.08;;;;;;;16.40;100.00;97355.75;5045317;28;20036;-70
2022/08/28 04:16:37;;;;;;;42.65;24.60;;;;;;;16.43;100.00;97358.69;5061857;28;20077;-68
2022/08/28 04:19:03;;;;;;;37.58;22.02;;;;;;;16.48;100.00;97360.56;5039379;28;20052;-69
2022/08/28 04:21:30;;;;;;;37.17;22.13;;;;;;;16.44;100.00;97360.31;5042385;28;20520;-69
2022/08/28 04:23:57;;;;;;;35.13;21.67;;;;;;;16.49;100.00;97356.72;5044538;28;20099;-68
2022/08/28 04:26:25;;;;;;;41.72;22.77;;;;;;;16.47;100.00;97354.28;5046331;28;20068;-68
2022/08/28 04:28:53;;;;;;;36.25;24.35;;;;;;;16.49;100.00;97352.09;5026455;28;20045;-69
2022/08/28 04:31:21;;;;;;;38.42;24.02;;;;;;;16.49;100.00;97362.19;5027003;28;20041;-68
2022/08/28 04:34:03;;;;;;;36.58;23.13;;;;;;;16.52;100.00;97361.63;5030327;28;20051;-67
2022/08/28 04:36:31;;;;;;;39.97;24.40;;;;;;;16.53;100.00;97365.97;5045317;28;20072;-70
2022/08/28 04:38:58;;;;;;;40.40;24.80;;;;;;;16.50;100.00;97364.66;5045911;28;20048;-68
2022/08/28 04:41:25;;;;;;;37.90;23.75;;;;;;;16.53;100.00;97360.50;5043400;28;20577;-69
2022/08/28 04:43:52;;;;;;;33.03;23.02;;;;;;;16.52;100.00;97367.09;5045950;28;20045;-67
2022/08/28 04:46:19;;;;;;;36.63;23.40;;;;;;;16.56;100.00;97362.66;5061601;28;20053;-68
2022/08/28 04:48:45;;;;;;;35.90;23.08;;;;;;;16.59;100.00;97361.28;5063586;28;20062;-68
2022/08/28 04:51:16;;;;;;;32.13;21.73;;;;;;;16.62;100.00;97363.44;5050938;28;20041;-69
2022/08/28 04:53:42;;;;;;;31.83;22.30;;;;;;;16.58;100.00;97371.38;5045995;28;20041;-70
2022/08/28 04:56:11;;;;;;;29.23;19.98;;;;;;;16.54;100.00;97372.28;5046178;28;20091;-68
2022/08/28 04:58:40;;;;;;;30.63;20.02;;;;;;;16.53;100.00;97379.66;5046264;28;20467;-68
2022/08/28 05:01:11;;;;;;;25.90;18.48;;;;;;;16.61;100.00;97378.19;5046122;28;20049;-69
2022/08/28 05:03:38;;;;;;;23.83;18.00;;;;;;;16.61;100.00;97375.44;5045961;28;20037;-68
2022/08/28 05:06:06;;;;;;;27.73;19.20;;;;;;;16.63;100.00;97375.97;5045618;28;20083;-69
2022/08/28 05:08:32;;;;;;;24.65;16.73;;;;;;;16.61;100.00;97376.28;5046348;28;20049;-68
2022/08/28 05:11:20;;;;;;;26.83;18.20;;;;;;;16.63;100.00;97378.72;5045901;28;20091;-68
2022/08/28 05:14:03;;;;;;;30.48;18.75;;;;;;;16.60;100.00;97376.56;5045629;28;20095;-70
2022/08/28 05:16:29;;;;;;;30.30;19.05;;;;;;;16.60;100.00;97374.66;5046005;28;20040;-68
2022/08/28 05:18:59;;;;;;;28.50;19.20;;;;;;;16.55;100.00;97377.41;5043329;28;20120;-70
2022/08/28 05:21:27;;;;;;;34.70;20.33;;;;;;;16.57;100.00;97375.22;5037961;28;20087;-70
2022/08/28 05:23:56;;;;;;;28.30;19.60;;;;;;;16.61;100.00;97376.28;5045241;28;20052;-68
2022/08/28 05:26:23;;;;;;;28.73;19.90;;;;;;;16.63;100.00;97373.25;5044171;28;20443;-68
2022/08/28 05:28:55;;;;;;;28.77;19.80;;;;;;;16.58;100.00;97386.97;5045642;28;20048;-68
2022/08/28 05:31:23;;;;;;;26.98;18.85;;;;;;;16.58;100.00;97385.03;5045008;28;20041;-68
2022/08/28 05:33:51;;;;;;;26.48;18.40;;;;;;;16.63;100.00;97384.97;5045092;28;20190;-68
2022/08/28 05:36:20;;;;;;;22.88;17.05;;;;;;;16.69;100.00;97385.72;5043411;28;20037;-68
2022/08/28 05:38:48;;;;;;;23.02;17.00;;;;;;;16.68;100.00;97381.38;5044189;28;20513;-69
2022/08/28 05:41:20;;;;;;;22.50;16.73;;;;;;;16.69;100.00;97380.28;5038166;28;20040;-69
2022/08/28 05:43:48;;;;;;;26.05;17.50;;;;;;;16.68;100.00;97381.38;5033799;28;20061;-68
2022/08/28 05:46:16;;;;;;;22.23;16.95;;;;;;;16.69;100.00;97387.69;5041449;28;20045;-69
2022/08/28 05:48:44;;;;;;;27.63;16.95;;;;;;;16.67;100.00;97385.22;5057142;28;20105;-69
2022/08/28 05:51:13;;;;;;;22.77;16.20;;;;;;;16.57;100.00;97390.78;5051778;28;20074;-69
2022/08/28 05:53:42;;;;;;;23.35;15.40;;;;;;;16.61;100.00;97392.66;5045942;28;20051;-68
2022/08/28 05:56:18;;;;;;;21.77;16.95;;;;;;;16.61;100.00;97389.94;5044844;28;20048;-68
2022/08/28 05:58:45;;;;;;;33.17;17.65;;;;;;;16.63;100.00;97395.13;5042505;28;20103;-69
2022/08/28 06:01:16;;;;;;;25.00;16.88;;;;;;;16.64;100.00;97397.56;5044951;28;20053;-69
2022/08/28 06:03:46;;;;;;;22.83;16.48;;;;;;;16.68;100.00;97397.78;5045059;28;20063;-68
2022/08/28 06:06:12;;;;;;;25.35;16.70;;;;;;;16.64;100.00;97399.47;5045237;28;20471;-69
2022/08/28 06:08:39;;;;;;;23.63;17.05;;;;;;;16.58;100.00;97397.91;5045627;28;20056;-69
2022/08/28 06:11:27;;;;;;;26.65;17.33;;;;;;;16.64;100.00;97405.75;5045467;28;20136;-68
2022/08/28 06:14:01;;;;;;;27.52;16.30;;;;;;;16.72;100.00;97407.03;5045728;28;20037;-68
2022/08/28 06:16:30;;;;;;;23.67;16.40;;;;;;;16.70;100.00;97392.81;5061532;28;20048;-70
2022/08/28 06:18:58;;;;;;;25.35;18.63;;;;;;;16.72;100.00;97398.00;5062085;28;20047;-69
2022/08/28 06:21:24;;;;;;;25.33;16.65;;;;;;;16.73;100.00;97405.91;5044894;28;20091;-68
2022/08/28 06:23:51;;;;;;;23.02;15.80;;;;;;;16.79;100.00;97406.69;5044662;28;20475;-69
2022/08/28 06:26:17;;;;;;;20.20;15.48;;;;;;;16.86;100.00;97398.13;5044814;28;20041;-68
2022/08/28 06:28:44;;;;;;;23.38;15.05;;;;;;;16.88;100.00;97398.66;5045433;28;20128;-68
2022/08/28 06:31:11;;;;;;;24.92;18.40;;;;;;;16.78;100.00;97405.06;5044224;28;20095;-67
2022/08/28 06:33:53;;;;;;;23.08;16.77;;;;;;;16.74;100.00;97413.00;5044936;28;20035;-68
2022/08/28 06:36:20;;;;;;;23.55;15.70;;;;;;;16.76;100.00;97420.94;5045860;28;20037;-68
2022/08/28 06:38:47;;;;;;;24.20;17.00;;;;;;;16.72;100.00;97415.22;5048864;28;20044;-68
2022/08/28 06:41:17;;;;;;;25.48;15.65;;;;;;;16.82;100.00;97418.94;5048172;28;20045;-69
2022/08/28 06:43:43;;;;;;;25.75;17.13;;;;;;;16.82;100.00;97414.31;5048386;28;20040;-69
2022/08/28 06:46:10;;;;;;;28.17;16.80;;;;;;;16.86;100.00;97423.56;5061732;28;20060;-68
2022/08/28 06:48:37;;;;;;;21.23;14.95;;;;;;;16.92;100.00;97426.22;5054763;28;20041;-70
2022/08/28 06:51:08;;;;;;;25.65;16.42;;;;;;;16.92;100.00;97424.31;5048293;28;20037;-70
2022/08/28 06:53:37;;;;;;;22.75;15.55;;;;;;;16.93;100.00;97425.94;5048133;28;20033;-68
2022/08/28 06:56:08;;;;;;;24.90;16.08;;;;;;;16.98;100.00;97427.78;5048446;28;20455;-71
2022/08/28 06:58:39;;;;;;;21.48;15.93;;;;;;;16.92;100.00;97423.47;5048380;28;20044;-69
2022/08/28 07:01:09;;;;;;;;;;;;;;;16.95;100.00;97428.38;5048603;28;20086;-68
2022/08/28 07:03:36;;;;;;;21.92;14.73;;;;;;;16.97;100.00;97435.19;5048560;28;19947;-68
2022/08/28 07:06:12;;;;;;;21.77;14.93;;;;;;;17.00;100.00;97433.78;5047678;28;20095;-69
2022/08/28 07:08:40;;;;;;;27.92;17.55;;;;;;;17.04;100.00;97440.28;5047805;28;20313;-68
2022/08/28 07:11:12;;;;;;;24.42;15.18;;;;;;;17.11;100.00;97439.97;5047684;28;20041;-69
2022/08/28 07:13:43;;;;;;;22.13;14.75;;;;;;;17.13;100.00;97438.56;5048205;28;20032;-69
2022/08/28 07:16:12;;;;;;;22.98;16.73;;;;;;;17.12;100.00;97441.59;5062231;28;20055;-69
2022/08/28 07:18:40;;;;;;;22.88;15.40;;;;;;;17.07;100.00;97447.13;5058991;28;20036;-69
2022/08/28 07:21:07;;;;;;;20.20;13.38;;;;;;;17.07;100.00;97447.13;5047424;28;20045;-69
2022/08/28 07:23:39;;;;;;;21.13;14.90;;;;;;;17.01;100.00;97447.16;5033166;28;20037;-70
2022/08/28 07:26:09;;;;;;;19.05;12.85;;;;;;;17.04;100.00;97453.97;5047373;28;20055;-68
2022/08/28 07:28:36;;;;;;;18.25;13.38;;;;;;;17.14;100.00;97442.91;5047596;28;20498;-69
2022/08/28 07:31:12;;;;;;;21.95;14.02;;;;;;;17.15;100.00;97444.53;5047339;28;20091;-68
2022/08/28 07:33:39;;;;;;;21.10;13.15;;;;;;;16.99;100.00;97445.84;5047075;28;20051;-69
2022/08/28 07:36:13;;;;;;;17.08;13.48;;;;;;;17.11;100.00;97453.63;5045786;28;20049;-69
2022/08/28 07:38:55;;;;;;;17.50;13.43;;;;;;;17.15;100.00;97460.94;5047261;28;20573;-68
2022/08/28 07:41:25;;;;;;;17.60;12.52;;;;;;;17.28;100.00;97459.44;5047679;28;20420;-70
2022/08/28 07:46:38;;;;;;;18.05;12.50;;;;;;;17.27;100.00;97457.81;5065032;28;20450;-68
2022/08/28 07:49:07;;;;;;;17.77;12.45;;;;;;;17.32;100.00;97461.59;5050938;28;20041;-69
2022/08/28 07:51:34;;;;;;;18.90;13.88;;;;;;;17.33;100.00;97463.22;5035519;28;20052;-69
2022/08/28 07:54:02;;;;;;;18.38;13.52;;;;;;;17.52;100.00;97464.06;5040776;28;20041;-70
2022/08/28 07:56:29;;;;;;;15.50;12.23;;;;;;;17.40;100.00;97466.41;5046846;28;20048;-69
2022/08/28 07:58:57;;;;;;;17.40;12.02;;;;;;;17.39;100.00;97468.31;5046674;28;20508;-69
2022/08/28 08:01:26;;;;;;;20.45;13.27;;;;;;;17.49;100.00;97464.63;5046725;28;20045;-69
2022/08/28 08:03:56;;;;;;;19.63;11.55;;;;;;;17.74;100.00;97470.84;5043211;28;20091;-68
2022/08/28 08:06:30;;;;;;;14.50;11.07;;;;;;;17.95;100.00;97473.28;5035328;28;20504;-67
2022/08/28 08:09:01;;;;;;;16.35;11.68;;;;;;;17.90;100.00;97470.59;5041868;28;20049;-67
2022/08/28 08:11:28;;;;;;;17.63;11.73;;;;;;;18.04;100.00;97476.97;5042438;28;20091;-67
2022/08/28 08:14:02;;;;;;;14.07;10.30;;;;;;;18.18;100.00;97484.44;5046234;28;20045;-67
2022/08/28 08:16:40;;;;;;;18.17;11.63;;;;;;;18.12;100.00;97480.97;5051622;28;20459;-68
2022/08/28 08:19:08;;;;;;;20.60;12.93;;;;;;;18.11;100.00;97486.75;5042268;28;20037;-70
2022/08/28 08:21:36;;;;;;;14.50;11.18;;;;;;;18.10;100.00;97483.22;5038257;28;20037;-67
2022/08/28 08:24:03;;;;;;;12.60;9.50;;;;;;;18.30;99.88;97490.28;5038761;28;20029;-66
2022/08/28 08:26:31;;;;;;;13.73;10.48;;;;;;;18.32;99.78;97499.00;5044239;28;20056;-66
2022/08/28 08:28:58;;;;;;;17.25;11.10;;;;;;;18.43;100.00;97498.84;5038310;28;20045;-66
2022/08/28 08:31:28;;;;;;;14.48;10.50;;;;;;;18.43;99.39;97499.63;5045803;28;20055;-66
2022/08/28 08:33:57;;;;;;;14.73;10.55;;;;;;;18.52;98.75;97504.44;5042368;28;20120;-66
2022/08/28 08:36:25;;;;;;;15.38;10.00;;;;;;;18.60;97.51;97511.97;5045918;28;20033;-66
2022/08/28 08:38:53;;;;;;;16.15;9.88;;;;;;;18.76;97.90;97512.50;5041676;28;20087;-66
2022/08/28 08:41:32;;;;;;;14.80;10.27;;;;;;;18.75;95.84;97512.81;5046069;28;20602;-66
2022/08/28 08:44:14;;;;;;;16.10;10.40;;;;;;;18.89;95.05;97518.31;5045460;28;20045;-66
2022/08/28 08:46:48;;;;;;;12.80;10.73;;;;;;;18.82;95.33;97525.00;5044630;28;20041;-66
2022/08/28 08:49:20;;;;;;;14.60;10.93;;;;;;;18.94;96.27;97518.22;5055147;28;20049;-66
2022/08/28 08:52:01;;;;;;;13.82;10.75;;;;;;;19.00;94.59;97517.00;5044957;28;20041;-66
2022/08/28 08:54:28;;;;;;;14.95;10.95;;;;;;;19.07;93.00;97520.19;5042982;28;20041;-66
2022/08/28 08:56:55;;;;;;;14.07;10.23;;;;;;;18.87;93.03;97520.56;5045674;28;20049;-67
2022/08/28 08:59:29;;;;;;;14.95;10.50;;;;;;;19.12;95.07;97524.75;5040588;28;20048;-67
2022/08/28 09:02:16;;;;;;;13.52;10.20;;;;;;;19.16;92.27;97524.97;5045992;28;20500;-67
2022/08/28 09:05:03;;;;;;;15.25;10.73;;;;;;;19.12;93.47;97526.72;5044786;28;20519;-67
2022/08/28 09:07:38;;;;;;;16.67;10.70;;;;;;;19.38;93.04;97526.19;5041865;28;20041;-67
2022/08/28 09:10:14;;;;;;;16.20;9.77;;;;;;;19.67;90.46;97523.09;5036591;28;20053;-67
2022/08/28 09:12:51;;;;;;;13.70;9.70;;;;;;;19.47;91.26;97527.09;5040951;28;20118;-66
2022/08/28 09:15:37;;;;;;;14.57;10.45;;;;;;;19.66;89.46;97526.13;5051787;28;20041;-66
2022/08/28 09:18:26;;;;;;;14.73;10.65;;;;;;;19.96;87.55;97527.41;5059790;28;20089;-66
2022/08/28 09:20:57;;;;;;;14.10;10.45;;;;;;;19.81;87.75;97530.47;5045309;28;20052;-67
2022/08/28 09:23:25;;;;;;;12.32;9.50;;;;;;;20.09;86.35;97525.72;5044709;28;20099;-67
2022/08/28 09:26:01;;;;;;;18.50;11.05;;;;;;;19.74;87.09;97528.97;5045635;28;20041;-66
2022/08/28 09:28:36;;;;;;;13.23;10.55;;;;;;;19.85;89.43;97528.75;5044411;28;20032;-66
2022/08/28 09:31:05;;;;;;;15.00;10.90;;;;;;;20.13;86.48;97528.69;5039732;28;20033;-66
2022/08/28 09:33:43;;;;;;;16.08;9.93;;;;;;;20.26;85.57;97532.50;5038760;28;20481;-66
2022/08/28 09:36:28;;;;;;;12.23;8.90;;;;;;;20.40;85.45;97533.25;5028575;28;20049;-66
2022/08/28 09:39:07;;;;;;;12.32;9.68;;;;;;;20.56;84.22;97526.56;5037884;28;20671;-66
2022/08/28 09:44:22;;;;;;;12.18;9.48;;;;;;;20.33;84.51;97538.38;5044390;28;20041;-66
2022/08/28 09:46:51;;;;;;;14.98;9.38;;;;;;;20.42;83.84;97532.13;5048898;28;20044;-66
2022/08/28 09:49:27;;;;;;;11.82;8.82;;;;;;;20.52;82.85;97527.19;5061275;28;20504;-66
2022/08/28 09:51:58;;;;;;;11.25;8.85;;;;;;;20.62;82.82;97522.53;5028838;28;20111;-66
2022/08/28 09:54:34;;;;;;;12.50;8.43;;;;;;;20.67;84.09;97523.22;5043076;28;20482;-66
2022/08/28 09:57:02;;;;;;;14.95;8.80;;;;;;;20.62;84.44;97525.28;5045462;28;20049;-66
2022/08/28 09:59:29;;;;;;;16.65;8.80;;;;;;;20.75;80.95;97524.38;5045084;28;20041;-66
2022/08/28 10:02:11;;;;;;;15.18;9.10;;;;;;;20.99;78.88;97533.44;5045542;28;20052;-67
2022/08/28 10:05:02;;;;;;;11.38;8.30;;;;;;;20.26;84.00;97533.31;5045686;28;20048;-67
2022/08/28 10:07:47;;;;;;;14.32;8.40;;;;;;;20.84;80.85;97535.47;5044866;28;20045;-67
2022/08/28 10:10:19;;;;;;;9.02;7.38;;;;;;;21.13;79.09;97539.69;5045150;28;20041;-67
2022/08/28 10:13:29;;;;;;;12.50;9.73;;;;;;;21.35;79.01;97526.94;5048781;28;20110;-67
2022/08/28 10:16:14;;;;;;;10.02;7.10;;;;;;;21.57;77.54;97522.47;5060689;28;20045;-67
2022/08/28 10:19:03;;;;;;;11.73;7.43;;;;;;;21.82;73.81;97531.91;5066815;28;20123;-67
2022/08/28 10:21:48;;;;;;;12.55;7.97;;;;;;;21.76;76.22;97529.66;5050337;28;20046;-67
2022/08/28 10:24:25;;;;;;;10.25;7.10;;;;;;;21.59;75.69;97535.91;5038278;28;20048;-67
2022/08/28 10:27:10;;;;;;;10.05;7.07;;;;;;;21.76;74.18;97526.88;5035824;28;20047;-67
2022/08/28 10:29:49;;;;;;;9.55;6.80;;;;;;;21.66;75.08;97539.81;5049028;28;20087;-67
2022/08/28 10:32:32;;;;;;;9.15;6.57;;;;;;;21.82;73.98;97526.41;5048201;28;20037;-67
2022/08/28 10:35:07;;;;;;;11.77;7.15;;;;;;;21.75;73.08;97530.78;5048359;28;20654;-67
2022/08/28 10:38:01;;;;;;;11.52;7.50;;;;;;;21.60;74.57;97532.03;5047721;28;20044;-67
2022/08/28 10:40:35;;;;;;;9.82;7.18;;;;;;;21.62;73.39;97532.50;5032892;28;20041;-67
2022/08/28 10:43:19;;;;;;;11.50;7.28;;;;;;;21.59;72.94;97531.22;5040181;28;20049;-67
2022/08/28 10:45:50;;;;;;;12.65;7.55;;;;;;;21.49;72.95;97532.31;5044026;28;20044;-67
2022/08/28 10:48:28;;;;;;;9.55;7.45;;;;;;;21.41;73.89;97528.41;5047398;28;20033;-66
2022/08/28 10:51:10;;;;;;;9.18;6.72;;;;;;;21.62;71.61;97532.50;5049433;28;20084;-67
2022/08/28 10:53:43;;;;;;;11.63;7.18;;;;;;;21.62;73.07;97524.25;5043978;28;20048;-68
2022/08/28 10:56:16;;;;;;;10.75;6.93;;;;;;;21.96;69.73;97520.75;5047659;28;20064;-66
2022/08/28 10:58:47;;;;;;;11.70;6.93;;;;;;;22.11;70.19;97526.09;5044286;28;20040;-66
2022/08/28 11:01:20;;;;;;;;;;;;;;;22.06;70.12;97521.56;5044615;28;20049;-67
2022/08/28 11:03:50;;;;;;;8.57;5.65;;;;;;;22.21;71.12;97528.53;5046584;28;19928;-66
2022/08/28 11:06:29;;;;;;;9.15;6.30;;;;;;;22.28;69.67;97526.09;5046182;28;20107;-69
2022/08/28 11:08:58;;;;;;;6.88;5.55;;;;;;;22.46;66.01;97529.66;5047236;28;20078;-68
2022/08/28 11:11:42;;;;;;;12.20;6.00;;;;;;;22.13;68.84;97524.66;5047275;28;20036;-67
2022/08/28 11:14:22;;;;;;;8.75;6.93;;;;;;;22.01;69.83;97530.00;5047568;28;20029;-69
2022/08/28 11:16:50;;;;;;;8.98;6.00;;;;;;;22.17;69.33;97525.63;5035898;28;20459;-66
2022/08/28 11:19:23;;;;;;;7.28;5.00;;;;;;;22.29;67.66;97527.72;5042988;28;20033;-70
2022/08/28 11:22:19;;;;;;;10.10;5.43;;;;;;;22.52;63.87;97530.28;5042774;28;20501;-65
2022/08/28 11:24:53;;;;;;;11.50;5.45;;;;;;;22.64;63.22;97539.88;5046560;28;20045;-65
2022/08/28 11:27:32;;;;;;;10.77;5.88;;;;;;;22.58;65.76;97536.47;5042172;28;20574;-67
2022/08/28 11:30:25;;;;;;;8.88;6.05;;;;;;;22.65;66.55;97530.44;5040362;28;20036;-65
2022/08/28 11:32:51;;;;;;;10.05;5.25;;;;;;;23.03;63.59;97526.91;5044140;28;20072;-66
2022/08/28 11:35:41;;;;;;;8.60;5.60;;;;;;;23.02;64.13;97519.78;5047560;28;20539;-66
2022/08/28 11:38:09;;;;;;;9.45;5.78;;;;;;;22.93;64.12;97519.81;5031890;28;20255;-67
2022/08/28 11:40:51;;;;;;;9.15;5.95;;;;;;;23.14;63.64;97524.59;5047032;28;20055;-70